createdAt,value
2019-03-27T00:01:52.079Z,6.34
2019-03-27T00:04:24.094Z,6.46
2019-03-27T00:06:58.018Z,6.54
2019-03-27T00:09:30.321Z,6.52
2019-03-27T00:12:03.581Z,6.47
2019-03-27T00:14:39.204Z,6.41
2019-03-27T00:17:11.580Z,6.42
2019-03-27T00:19:45.290Z,6.34
2019-03-27T00:22:18.634Z,6.35
2019-03-27T00:24:51.391Z,6.22
2019-03-27T00:27:23.727Z,6.15
2019-03-27T00:29:56.000Z,6.14
2019-03-27T00:32:31.629Z,6.12
2019-03-27T00:35:03.800Z,6.25
2019-03-27T00:37:36.867Z,6.21
2019-03-27T00:40:09.779Z,6.36
2019-03-27T00:42:42.115Z,6.35
2019-03-27T00:45:26.015Z,6.45
2019-03-27T00:47:48.624Z,6.50
2019-03-27T00:50:22.112Z,6.46
2019-03-27T00:52:54.261Z,6.34
2019-03-27T00:55:26.555Z,6.46
2019-03-27T00:57:58.755Z,6.52
2019-03-27T01:00:36.252Z,6.68
2019-03-27T01:03:08.426Z,6.57
2019-03-27T01:05:40.675Z,6.52
2019-03-27T01:08:16.014Z,6.57
2019-03-27T01:10:48.286Z,6.52
2019-03-27T01:13:20.574Z,6.56
2019-03-27T01:15:52.913Z,6.51
2019-03-27T01:18:25.079Z,6.42
2019-03-27T01:20:57.251Z,6.39
2019-03-27T01:23:29.262Z,6.42
2019-03-27T01:26:01.696Z,6.38
2019-03-27T01:28:34.361Z,6.34
2019-03-27T01:31:06.670Z,6.19
2019-03-27T01:33:38.932Z,6.31
2019-03-27T01:36:14.478Z,6.39
2019-03-27T01:38:46.823Z,6.38
2019-03-27T01:41:19.110Z,6.39
2019-03-27T01:43:51.277Z,6.52
2019-03-27T01:46:23.507Z,6.56
2019-03-27T01:48:55.709Z,6.60
2019-03-27T01:51:28.008Z,6.61
2019-03-27T01:54:00.330Z,6.75
2019-03-27T01:56:32.616Z,6.76
2019-03-27T01:59:04.905Z,6.80
2019-03-27T02:01:37.122Z,6.86
2019-03-27T02:04:09.370Z,6.88
2019-03-27T02:06:43.201Z,6.87
2019-03-27T02:09:15.555Z,6.90
2019-03-27T02:11:47.960Z,6.91
2019-03-27T02:14:23.011Z,6.78
2019-03-27T02:16:55.267Z,6.53
2019-03-27T02:19:27.491Z,6.50
2019-03-27T02:21:59.684Z,6.59
2019-03-27T02:24:32.654Z,6.57
2019-03-27T02:27:05.088Z,6.49
2019-03-27T02:29:37.271Z,6.46
2019-03-27T02:32:09.580Z,6.45
2019-03-27T02:34:41.702Z,6.43
2019-03-27T02:37:15.004Z,6.43
2019-03-27T02:39:47.581Z,6.47
2019-03-27T02:42:19.897Z,6.22
2019-03-27T02:44:52.315Z,6.16
2019-03-27T02:47:24.674Z,6.21
2019-03-27T02:49:57.502Z,6.36
2019-03-27T02:52:29.723Z,6.35
2019-03-27T02:55:01.988Z,6.21
2019-03-27T02:57:34.235Z,6.07
2019-03-27T03:00:08.377Z,6.01
2019-03-27T03:02:40.470Z,6.12
2019-03-27T03:05:13.069Z,6.21
2019-03-27T03:07:45.270Z,6.28
2019-03-27T03:10:19.677Z,6.30
2019-03-27T03:12:51.968Z,6.14
2019-03-27T03:15:25.700Z,6.12
2019-03-27T03:17:58.241Z,6.19
2019-03-27T03:20:30.443Z,6.14
2019-03-27T03:23:02.785Z,6.11
2019-03-27T03:25:35.050Z,6.01
2019-03-27T03:28:07.409Z,6.05
2019-03-27T03:30:39.629Z,5.90
2019-03-27T03:33:11.981Z,5.84
2019-03-27T03:35:45.322Z,5.88
2019-03-27T03:38:17.645Z,5.89
2019-03-27T03:40:49.866Z,5.94
2019-03-27T03:43:22.129Z,5.96
2019-03-27T03:45:54.509Z,5.92
2019-03-27T03:48:27.562Z,5.90
2019-03-27T03:51:02.691Z,5.71
2019-03-27T03:53:35.752Z,5.60
2019-03-27T03:56:09.068Z,5.66
2019-03-27T03:58:43.726Z,5.72
2019-03-27T04:01:19.509Z,5.75
2019-03-27T04:03:52.721Z,5.64
2019-03-27T04:06:24.737Z,5.66
2019-03-27T04:08:56.758Z,5.68
2019-03-27T04:11:29.711Z,5.73
2019-03-27T04:14:01.808Z,5.64
2019-03-27T04:16:33.958Z,5.87
2019-03-27T04:19:05.945Z,6.00
2019-03-27T04:21:38.584Z,6.10
2019-03-27T04:24:10.587Z,6.14
2019-03-27T04:26:43.320Z,6.18
2019-03-27T04:29:15.376Z,6.08
2019-03-27T04:31:47.506Z,6.09
2019-03-27T04:34:19.556Z,6.17
2019-03-27T04:36:54.122Z,6.13
2019-03-27T04:39:26.334Z,6.15
2019-03-27T04:41:58.519Z,6.14
2019-03-27T04:44:33.120Z,6.12
2019-03-27T04:47:06.262Z,6.13
2019-03-27T04:49:38.623Z,6.14
2019-03-27T04:52:11.168Z,6.13
2019-03-27T04:54:43.301Z,6.21
2019-03-27T04:57:16.099Z,6.15
2019-03-27T04:59:48.252Z,6.06
2019-03-27T05:02:20.812Z,6.12
2019-03-27T05:04:54.160Z,6.03
2019-03-27T05:07:26.280Z,6.07
2019-03-27T05:09:58.636Z,6.00
2019-03-27T05:12:31.154Z,6.08
2019-03-27T05:15:03.472Z,6.17
2019-03-27T05:17:45.990Z,6.15
2019-03-27T05:20:10.404Z,6.15
2019-03-27T05:22:43.661Z,6.17
2019-03-27T05:25:15.913Z,6.09
2019-03-27T05:27:48.295Z,6.11
2019-03-27T05:30:30.182Z,6.18
2019-03-27T05:33:02.247Z,6.25
2019-03-27T05:35:34.354Z,6.26
2019-03-27T05:38:08.569Z,6.27
2019-03-27T05:40:43.451Z,6.35
2019-03-27T05:43:15.552Z,6.40
2019-03-27T05:45:49.135Z,6.41
2019-03-27T05:48:21.257Z,6.53
2019-03-27T05:50:54.565Z,6.62
2019-03-27T05:53:26.697Z,6.59
2019-03-27T05:55:59.375Z,6.72
2019-03-27T05:58:31.488Z,6.74
2019-03-27T06:01:04.343Z,6.84
2019-03-27T06:03:36.435Z,6.84
2019-03-27T06:06:10.131Z,6.93
2019-03-27T06:08:42.326Z,6.93
2019-03-27T06:11:14.575Z,7.04
2019-03-27T06:13:46.829Z,7.16
2019-03-27T06:16:19.010Z,7.26
2019-03-27T06:18:51.265Z,7.31
2019-03-27T06:21:24.082Z,7.49
2019-03-27T06:23:57.656Z,7.63
2019-03-27T06:26:29.904Z,7.66
2019-03-27T06:29:02.074Z,7.76
2019-03-27T06:31:34.303Z,7.68
2019-03-27T06:34:07.438Z,7.66
2019-03-27T06:36:39.503Z,7.79
2019-03-27T06:39:11.694Z,7.95
2019-03-27T06:41:43.870Z,8.05
2019-03-27T06:44:16.106Z,8.13
2019-03-27T06:46:48.172Z,8.19
2019-03-27T06:49:20.280Z,8.22
2019-03-27T06:51:52.765Z,8.24
2019-03-27T06:54:24.922Z,8.23
2019-03-27T06:57:01.617Z,8.41
2019-03-27T06:59:34.205Z,8.63
2019-03-27T07:02:07.411Z,8.91
2019-03-27T07:04:39.579Z,9.17
2019-03-27T07:07:11.756Z,9.34
2019-03-27T07:09:45.446Z,9.41
2019-03-27T07:12:21.381Z,9.53
2019-03-27T07:14:52.699Z,9.53
2019-03-27T07:17:26.336Z,9.53
2019-03-27T07:19:59.094Z,9.71
2019-03-27T07:22:31.180Z,9.76
2019-03-27T07:25:03.333Z,9.92
2019-03-27T07:27:35.427Z,10.07
2019-03-27T07:30:09.542Z,10.16
2019-03-27T07:32:41.604Z,10.31
2019-03-27T07:35:15.574Z,10.57
2019-03-27T07:37:48.357Z,10.57
2019-03-27T07:40:22.952Z,10.74
2019-03-27T07:42:55.009Z,10.63
2019-03-27T07:45:27.444Z,10.69
2019-03-27T07:48:01.095Z,10.65
2019-03-27T07:50:35.714Z,10.81
2019-03-27T07:53:08.171Z,10.75
2019-03-27T07:55:40.371Z,10.87
2019-03-27T07:58:14.632Z,10.96
2019-03-27T08:00:46.746Z,10.95
2019-03-27T08:03:18.864Z,11.17
2019-03-27T08:05:51.002Z,11.45
2019-03-27T08:08:23.391Z,11.45
2019-03-27T08:10:55.434Z,11.44
2019-03-27T08:13:28.188Z,11.66
2019-03-27T08:16:00.994Z,12.08
2019-03-27T08:18:35.965Z,12.42
2019-03-27T08:21:08.237Z,12.77
2019-03-27T08:23:40.419Z,12.55
2019-03-27T08:26:15.961Z,12.65
2019-03-27T08:28:48.244Z,12.86
2019-03-27T08:31:21.041Z,12.88
2019-03-27T08:33:53.262Z,12.96
2019-03-27T08:36:25.409Z,12.84
2019-03-27T08:38:57.757Z,13.00
2019-03-27T08:41:29.880Z,13.29
2019-03-27T08:44:03.225Z,12.74
2019-03-27T08:46:35.939Z,13.02
2019-03-27T08:49:21.274Z,13.14
2019-03-27T08:51:43.997Z,13.19
2019-03-27T08:54:16.219Z,13.79
2019-03-27T08:56:48.669Z,13.97
2019-03-27T08:59:21.049Z,13.74
2019-03-27T09:01:53.307Z,14.05
2019-03-27T09:04:25.604Z,14.22
2019-03-27T09:06:58.173Z,14.20
2019-03-27T09:09:30.324Z,14.50
2019-03-27T09:12:02.433Z,14.25
2019-03-27T09:14:34.624Z,14.16
2019-03-27T09:17:06.798Z,14.31
2019-03-27T09:19:40.593Z,14.74
2019-03-27T09:22:15.134Z,14.88
2019-03-27T09:24:51.300Z,15.16
2019-03-27T09:27:24.776Z,15.09
2019-03-27T09:29:57.152Z,14.53
2019-03-27T09:32:30.335Z,14.41
2019-03-27T09:35:06.777Z,14.08
2019-03-27T09:37:42.559Z,13.96
2019-03-27T09:40:19.602Z,13.89
2019-03-27T09:42:54.020Z,14.14
2019-03-27T09:45:27.700Z,14.29
2019-03-27T09:48:01.539Z,14.20
2019-03-27T09:50:36.470Z,14.33
2019-03-27T09:53:09.798Z,14.08
2019-03-27T09:55:42.308Z,13.94
2019-03-27T09:58:17.936Z,13.69
2019-03-27T10:01:07.903Z,13.75
2019-03-27T10:03:40.055Z,13.49
2019-03-27T10:06:13.233Z,13.47
2019-03-27T10:08:47.641Z,13.23
2019-03-27T10:11:19.942Z,12.97
2019-03-27T10:13:52.222Z,13.26
2019-03-27T10:16:24.508Z,13.35
2019-03-27T10:18:57.727Z,13.33
2019-03-27T10:21:30.009Z,13.02
2019-03-27T10:24:02.295Z,12.88
2019-03-27T10:26:34.672Z,12.70
2019-03-27T10:29:06.949Z,12.77
2019-03-27T10:31:40.261Z,12.71
2019-03-27T10:34:12.853Z,12.66
2019-03-27T10:36:46.167Z,12.72
2019-03-27T10:39:18.481Z,12.76
2019-03-27T10:41:50.561Z,12.75
2019-03-27T10:44:25.033Z,12.36
2019-03-27T10:46:57.227Z,12.35
2019-03-27T10:49:30.149Z,12.22
2019-03-27T10:52:02.336Z,12.24
2019-03-27T10:54:36.354Z,12.22
2019-03-27T10:57:09.027Z,12.12
2019-03-27T10:59:42.643Z,12.10
2019-03-27T11:02:14.813Z,12.28
2019-03-27T11:04:47.345Z,12.37
2019-03-27T11:07:19.485Z,12.67
2019-03-27T11:09:51.539Z,12.86
2019-03-27T11:12:24.107Z,13.04
2019-03-27T11:14:56.298Z,13.64
2019-03-27T11:17:28.477Z,14.30
2019-03-27T11:20:00.855Z,15.08
2019-03-27T11:22:34.857Z,15.81
2019-03-27T11:25:10.048Z,15.92
2019-03-27T11:27:43.460Z,15.59
2019-03-27T11:30:16.079Z,14.93
2019-03-27T11:32:49.735Z,14.56
2019-03-27T11:35:21.941Z,14.29
2019-03-27T11:37:54.232Z,13.89
2019-03-27T11:40:26.237Z,13.91
2019-03-27T11:42:58.595Z,13.45
2019-03-27T11:45:31.015Z,13.27
2019-03-27T11:48:04.115Z,12.99
2019-03-27T11:50:44.748Z,12.77
2019-03-27T11:53:10.368Z,12.75
2019-03-27T11:55:42.572Z,12.73
2019-03-27T11:58:15.868Z,12.55
2019-03-27T12:00:54.543Z,12.64
2019-03-27T12:03:21.650Z,12.71
2019-03-27T12:05:53.900Z,12.79
2019-03-27T12:08:26.034Z,12.82
2019-03-27T12:10:58.255Z,12.90
2019-03-27T12:13:32.837Z,12.73
2019-03-27T12:16:06.537Z,12.53
2019-03-27T12:18:39.204Z,12.66
2019-03-27T12:21:11.289Z,12.79
2019-03-27T12:23:43.367Z,12.90
2019-03-27T12:26:15.560Z,12.60
2019-03-27T12:28:47.771Z,12.75
2019-03-27T12:31:21.178Z,12.60
2019-03-27T12:33:53.808Z,12.58
2019-03-27T12:36:25.999Z,12.66
2019-03-27T12:38:59.109Z,12.60
2019-03-27T12:41:33.034Z,12.48
2019-03-27T12:44:05.083Z,12.60
2019-03-27T12:46:38.513Z,12.60
2019-03-27T12:49:10.676Z,12.57
2019-03-27T12:51:43.951Z,12.39
2019-03-27T12:54:17.488Z,12.47
2019-03-27T12:56:49.667Z,12.24
2019-03-27T12:59:22.479Z,12.25
2019-03-27T13:01:54.524Z,12.26
2019-03-27T13:04:26.689Z,12.34
2019-03-27T13:06:58.757Z,12.40
2019-03-27T13:09:30.856Z,12.18
2019-03-27T13:12:04.930Z,12.23
2019-03-27T13:14:38.957Z,12.18
2019-03-27T13:17:10.939Z,12.18
2019-03-27T13:19:43.020Z,12.25
2019-03-27T13:22:15.040Z,12.33
2019-03-27T13:24:47.140Z,12.20
2019-03-27T13:27:19.149Z,12.20
2019-03-27T13:29:52.180Z,12.24
2019-03-27T13:32:24.236Z,12.26
2019-03-27T13:34:56.411Z,12.17
2019-03-27T13:37:29.583Z,12.05
2019-03-27T13:40:01.723Z,12.05
2019-03-27T13:42:33.815Z,11.98
2019-03-27T13:45:06.713Z,12.09
2019-03-27T13:47:39.980Z,12.01
2019-03-27T13:50:14.067Z,12.08
2019-03-27T13:52:46.308Z,12.16
2019-03-27T13:55:18.664Z,12.21
2019-03-27T13:57:50.888Z,12.16
2019-03-27T14:00:23.968Z,12.14
2019-03-27T14:02:56.187Z,12.17
2019-03-27T14:09:41.939Z,11.05
2019-03-27T14:12:18.661Z,11.05
2019-03-27T14:26:02.781Z,9.04
2019-03-27T14:28:37.789Z,8.54
2019-03-27T14:31:10.546Z,8.26
2019-03-27T14:33:43.318Z,8.04
2019-03-27T14:36:16.992Z,7.84
2019-03-27T14:38:50.141Z,7.71
2019-03-27T14:41:29.543Z,7.68
2019-03-27T14:44:03.104Z,7.73
2019-03-27T14:46:35.339Z,7.58
2019-03-27T14:49:07.691Z,7.61
2019-03-27T14:51:39.911Z,7.53
2019-03-27T14:54:12.055Z,7.61
2019-03-27T14:56:44.215Z,7.58
2019-03-27T14:59:16.309Z,7.50
2019-03-27T15:01:48.594Z,7.41
2019-03-27T15:04:20.737Z,7.35
2019-03-27T15:06:52.751Z,7.33
2019-03-27T15:09:24.918Z,7.25
2019-03-27T15:11:57.053Z,7.28
2019-03-27T15:14:30.082Z,7.18
2019-03-27T15:17:05.652Z,7.24
2019-03-27T15:19:40.838Z,7.19
2019-03-27T15:22:22.320Z,7.10
2019-03-27T15:24:49.720Z,7.01
2019-03-27T15:27:23.617Z,6.95
2019-03-27T15:29:56.915Z,6.85
2019-03-27T15:32:34.456Z,6.90
2019-03-27T15:35:07.547Z,6.93
2019-03-27T15:37:41.874Z,6.79
2019-03-27T15:40:15.578Z,6.83
2019-03-27T15:42:47.996Z,6.80
2019-03-27T15:45:20.520Z,6.82
2019-03-27T15:47:55.013Z,6.69
2019-03-27T15:50:30.639Z,6.75
2019-03-27T15:53:04.823Z,6.71
2019-03-27T15:55:39.101Z,6.69
2019-03-27T15:58:12.108Z,6.70
2019-03-27T16:00:44.353Z,6.77
2019-03-27T16:03:16.266Z,6.82
2019-03-27T16:05:49.595Z,6.70
2019-03-27T16:08:23.425Z,6.70
2019-03-27T16:10:55.699Z,6.70
2019-03-27T16:13:29.331Z,6.71
2019-03-27T16:16:01.364Z,6.71
2019-03-27T16:18:34.408Z,6.64
2019-03-27T16:21:07.639Z,6.41
2019-03-27T16:23:39.865Z,6.47
2019-03-27T16:26:12.039Z,6.50
2019-03-27T16:28:55.342Z,6.56
2019-03-27T16:31:27.510Z,6.52
2019-03-27T16:34:02.764Z,6.57
2019-03-27T16:36:35.301Z,6.54
2019-03-27T16:39:09.484Z,6.47
2019-03-27T16:41:41.753Z,6.42
2019-03-27T16:44:15.976Z,6.44
2019-03-27T16:46:49.210Z,6.45
2019-03-27T16:49:21.196Z,6.36
2019-03-27T16:51:56.383Z,6.36
2019-03-27T16:54:28.106Z,6.35
2019-03-27T16:57:01.560Z,6.32
2019-03-27T16:59:33.859Z,6.33
2019-03-27T17:02:06.124Z,6.22
2019-03-27T17:04:38.276Z,6.21
2019-03-27T17:07:10.436Z,6.29
2019-03-27T17:09:42.611Z,6.33
2019-03-27T17:12:14.721Z,6.19
2019-03-27T17:14:46.792Z,6.24
2019-03-27T17:17:18.879Z,6.31
2019-03-27T17:19:52.607Z,6.32
2019-03-27T17:22:24.996Z,6.26
2019-03-27T17:24:59.381Z,6.34
2019-03-27T17:27:31.886Z,6.27
2019-03-27T17:30:15.635Z,6.24
2019-03-27T17:32:47.946Z,6.24
2019-03-27T17:35:22.299Z,6.18
2019-03-27T17:37:54.882Z,6.19
2019-03-27T17:40:26.946Z,6.17
2019-03-27T17:42:59.014Z,6.22
2019-03-27T17:45:31.553Z,6.24
2019-03-27T17:48:03.639Z,6.20
2019-03-27T17:50:36.219Z,6.23
2019-03-27T17:53:08.886Z,6.26
2019-03-27T17:55:41.578Z,6.32
2019-03-27T17:58:13.712Z,6.29
2019-03-27T18:00:53.781Z,6.26
2019-03-27T18:03:26.344Z,6.36
2019-03-27T18:05:58.383Z,6.44
2019-03-27T18:08:30.536Z,6.40
2019-03-27T18:11:08.268Z,6.51
2019-03-27T18:13:40.847Z,6.45
2019-03-27T18:16:17.038Z,6.41
2019-03-27T18:18:49.028Z,6.30
2019-03-27T18:21:21.422Z,6.32
2019-03-27T18:23:54.246Z,6.40
2019-03-27T18:26:26.789Z,6.44
2019-03-27T18:29:00.458Z,6.60
2019-03-27T18:31:33.034Z,6.69
2019-03-27T18:34:05.240Z,6.81
2019-03-27T18:36:37.545Z,6.76
2019-03-27T18:39:12.131Z,6.60
2019-03-27T18:41:46.593Z,6.45
2019-03-27T18:44:20.860Z,6.37
2019-03-27T18:46:53.056Z,6.37
2019-03-27T18:49:26.184Z,6.33
2019-03-27T18:51:58.305Z,6.26
2019-03-27T18:54:32.744Z,6.37
2019-03-27T18:57:05.019Z,6.28
2019-03-27T18:59:40.712Z,6.29
2019-03-27T19:02:12.698Z,6.28
2019-03-27T19:04:45.255Z,6.39
2019-03-27T19:07:18.479Z,6.44
2019-03-27T19:09:50.648Z,6.40
2019-03-27T19:12:22.752Z,6.36
2019-03-27T19:14:54.786Z,6.29
2019-03-27T19:17:28.011Z,6.39
2019-03-27T19:20:00.390Z,6.39
2019-03-27T19:22:32.542Z,6.36
2019-03-27T19:25:04.702Z,6.35
2019-03-27T19:27:37.062Z,6.40
2019-03-27T19:30:09.958Z,6.32
2019-03-27T19:32:42.247Z,6.39
2019-03-27T19:35:16.189Z,6.47
2019-03-27T19:37:48.290Z,6.40
2019-03-27T19:40:20.346Z,6.32
2019-03-27T19:42:53.763Z,6.40
2019-03-27T19:45:25.972Z,6.47
2019-03-27T19:47:58.445Z,6.52
2019-03-27T19:50:30.462Z,6.43
2019-03-27T19:53:02.696Z,6.39
2019-03-27T19:55:34.766Z,6.44
2019-03-27T19:58:08.186Z,6.42
2019-03-27T20:00:40.972Z,6.52
2019-03-27T20:03:14.436Z,6.31
2019-03-27T20:05:47.070Z,6.19
2019-03-27T20:08:19.123Z,6.20
2019-03-27T20:10:51.184Z,6.26
2019-03-27T20:13:23.269Z,6.24
2019-03-27T20:15:55.302Z,6.28
2019-03-27T20:18:28.756Z,6.22
2019-03-27T20:21:02.038Z,6.24
2019-03-27T20:23:34.417Z,6.22
2019-03-27T20:26:06.436Z,6.18
2019-03-27T20:28:39.810Z,6.11
2019-03-27T20:31:12.374Z,6.16
2019-03-27T20:33:44.571Z,6.17
2019-03-27T20:36:18.563Z,6.11
2019-03-27T20:38:50.907Z,6.13
2019-03-27T20:41:24.294Z,6.02
2019-03-27T20:43:57.698Z,5.99
2019-03-27T20:46:31.805Z,5.97
2019-03-27T20:49:04.978Z,5.98
2019-03-27T20:51:42.363Z,5.94
2019-03-27T20:54:15.474Z,5.98
2019-03-27T20:56:47.686Z,6.01
2019-03-27T20:59:19.839Z,5.84
2019-03-27T21:01:51.978Z,5.76
2019-03-27T21:04:24.782Z,5.71
2019-03-27T21:06:57.028Z,5.83
2019-03-27T21:09:30.212Z,5.69
2019-03-27T21:12:02.189Z,5.70
2019-03-27T21:14:34.255Z,5.70
2019-03-27T21:17:07.277Z,5.67
2019-03-27T21:19:39.304Z,5.60
2019-03-27T21:22:11.357Z,5.62
2019-03-27T21:24:43.979Z,5.57
2019-03-27T21:27:17.642Z,5.54
2019-03-27T21:29:53.573Z,5.50
2019-03-27T21:32:25.753Z,5.49
2019-03-27T21:34:57.862Z,5.34
2019-03-27T21:37:30.820Z,5.37
2019-03-27T21:40:02.848Z,5.25
2019-03-27T21:42:34.961Z,5.24
2019-03-27T21:45:09.388Z,5.19
2019-03-27T21:47:41.463Z,5.25
2019-03-27T21:50:13.576Z,5.18
2019-03-27T21:52:59.556Z,5.15
2019-03-27T21:55:22.869Z,5.05
2019-03-27T21:57:54.404Z,5.02
2019-03-27T22:00:39.526Z,4.94
2019-03-27T22:03:11.599Z,4.96
2019-03-27T22:05:43.866Z,5.01
2019-03-27T22:08:18.808Z,4.94
2019-03-27T22:10:50.841Z,5.04
2019-03-27T22:13:22.931Z,5.13
2019-03-27T22:15:54.973Z,5.08
2019-03-27T22:18:30.680Z,4.98
2019-03-27T22:21:02.665Z,5.01
2019-03-27T22:23:35.627Z,4.95
2019-03-27T22:26:08.049Z,4.90
2019-03-27T22:28:40.137Z,4.92
2019-03-27T22:31:12.341Z,4.98
2019-03-27T22:33:45.712Z,4.98
2019-03-27T22:36:17.775Z,4.97
2019-03-27T22:38:49.775Z,4.96
2019-03-27T22:41:22.238Z,4.92
2019-03-27T22:43:54.369Z,4.86
2019-03-27T22:46:26.397Z,4.78
2019-03-27T22:48:58.406Z,4.78
2019-03-27T22:51:30.565Z,4.71
2019-03-27T22:54:02.492Z,4.82
2019-03-27T22:56:34.753Z,4.64
2019-03-27T22:59:06.925Z,4.46
2019-03-27T23:01:48.956Z,4.48
2019-03-27T23:04:29.021Z,4.47
2019-03-27T23:07:02.527Z,4.34
2019-03-27T23:09:35.782Z,4.16
2019-03-27T23:12:07.920Z,4.08
2019-03-27T23:14:39.941Z,3.90
2019-03-27T23:17:11.941Z,3.98
2019-03-27T23:19:43.876Z,3.94
2019-03-27T23:22:15.919Z,3.81
2019-03-27T23:24:47.888Z,3.85
2019-03-27T23:27:20.113Z,3.72
2019-03-27T23:29:52.382Z,3.75
2019-03-27T23:32:24.650Z,3.81
2019-03-27T23:34:57.059Z,3.67
2019-03-27T23:37:29.333Z,3.58
2019-03-27T23:40:03.242Z,3.61
2019-03-27T23:42:35.426Z,3.64
2019-03-27T23:45:08.395Z,3.66
2019-03-27T23:47:40.670Z,3.61
2019-03-27T23:50:13.055Z,3.71
2019-03-27T23:52:45.318Z,3.77
2019-03-27T23:55:18.209Z,3.77
2019-03-27T23:57:50.648Z,3.72
